Time;durP1;ratioP1;P1;durP2;ratioP2;P2;SDS_P1;SDS_P2;PMS_P1;PMS_P2;Temp;Humidity;BMP_temperature;BMP_pressure;BME280_temperature;BME280_humidity;BME280_pressure;Samples;Min_cycle;Max_cycle;Signal;HPM_P1;HPM_P2
2022/11/15 00:01:18;;;;;;;;;;;;;;;;;;5104430;28;20376;-56
2022/11/15 00:03:43;;;;;;;;;;;;;;;;;;5107418;28;20002;-57
2022/11/15 00:06:09;;;;;;;;;;;;;;;;;;5109111;28;19923;-56
2022/11/15 00:08:34;;;;;;;;;;;;;;;;;;5106357;28;19916;-56
2022/11/15 00:11:00;;;;;;;;;;;;;;;;;;5107440;28;19920;-56
2022/11/15 00:13:26;;;;;;;;;;;;;;;;;;5106314;28;19919;-57
2022/11/15 00:15:51;;;;;;;;;;;;;;;;;;5101282;28;19980;-58
2022/11/15 00:18:17;;;;;;;;;;;;;;;;;;5104342;28;19964;-56
2022/11/15 00:20:42;;;;;;;;;;;;;;;;;;5107003;28;20384;-57
2022/11/15 00:23:08;;;;;;;;;;;;;;;;;;5108361;28;20397;-56
2022/11/15 00:25:33;;;;;;;;;;;;;;;;;;5107807;28;20377;-57
2022/11/15 00:27:59;;;;;;;;;;;;;;;;;;5108336;28;19922;-56
2022/11/15 00:30:24;;;;;;;;;;;;;;;;;;5105444;28;20006;-56
2022/11/15 00:32:50;;;;;;;;;;;;;;;;;;5108197;28;20328;-56
2022/11/15 00:35:15;;;;;;;;;;;;;;;;;;5107474;28;19955;-58
2022/11/15 00:37:40;;;;;;;;;;;;;;;;;;5106689;28;19920;-56
2022/11/15 00:40:06;;;;;;;;;;;;;;;;;;5104661;28;19994;-56
2022/11/15 00:42:31;;;;;;;;;;;;;;;;;;5105157;28;19923;-56
2022/11/15 00:44:56;;;;;;;;;;;;;;;;;;5107674;28;19916;-56
2022/11/15 00:47:22;;;;;;;;;;;;;;;;;;5107002;28;19920;-57
2022/11/15 00:49:47;;;;;;;;;;;;;;;;;;5107299;28;19927;-56
2022/11/15 00:52:12;;;;;;;;;;;;;;;;;;5104404;28;20355;-56
2022/11/15 00:54:37;;;;;;;;;;;;;;;;;;5103525;28;19915;-56
2022/11/15 00:57:03;;;;;;;;;;;;;;;;;;5104414;28;19923;-57
2022/11/15 00:59:28;;;;;;;;;;;;;;;;;;5103620;28;19915;-56
2022/11/15 01:01:54;;;;;;;;;;;;;;;;;;5107073;27;19919;-56
2022/11/15 01:04:19;;;;;;;;;;;;;;;;;;5105697;28;20329;-56
2022/11/15 01:06:44;;;;;;;;;;;;;;;;;;5104232;28;19916;-56
2022/11/15 01:09:10;;;;;;;;;;;;;;;;;;5103077;28;19924;-56
2022/11/15 01:11:35;;;;;;;;;;;;;;;;;;5102369;28;19927;-55
2022/11/15 01:14:00;;;;;;;;;;;;;;;;;;5105945;28;19997;-56
2022/11/15 01:16:25;;;;;;;;;;;;;;;;;;5105918;28;19916;-56
2022/11/15 01:18:51;;;;;;;;;;;;;;;;;;5108403;28;20399;-56
2022/11/15 01:21:17;;;;;;;;;;;;;;;;;;5103492;28;19920;-57
2022/11/15 01:23:42;;;;;;;;;;;;;;;;;;5105855;28;20416;-56
2022/11/15 01:26:10;;;;;;;;;;;;;;;;;;5101626;28;19947;-57
2022/11/15 01:28:36;;;;;;;;;;;;;;;;;;5105168;28;19954;-56
2022/11/15 01:31:02;;;;;;;;;;;;;;;;;;5105271;28;19924;-56
2022/11/15 01:33:28;;;;;;;;;;;;;;;;;;5105844;28;19919;-55
2022/11/15 01:35:54;;;;;;;;;;;;;;;;;;5106500;28;20380;-56
2022/11/15 01:38:19;;;;;;;;;;;;;;;;;;5104299;28;19920;-55
2022/11/15 01:40:45;;;;;;;;;;;;;;;;;;5106899;28;19916;-56
2022/11/15 01:43:24;;;;;;;;;;;;;;;;;;5104571;28;19954;-56
2022/11/15 01:45:53;;;;;;;;;;;;;;;;;;5105602;28;19915;-57
2022/11/15 01:48:18;;;;;;;;;;;;;;;;;;5102349;28;19916;-57
2022/11/15 01:50:44;;;;;;;;;;;;;;;;;;5101388;28;20335;-56
2022/11/15 01:53:10;;;;;;;;;;;;;;;;;;5105839;28;19920;-56
2022/11/15 01:55:36;;;;;;;;;;;;;;;;;;5106633;28;19926;-56
2022/11/15 01:58:03;;;;;;;;;;;;;;;;;;5105496;28;19920;-56
2022/11/15 02:00:29;;;;;;;;;;;;;;;;;;5105589;28;19916;-57
2022/11/15 02:02:54;;;;;;;;;;;;;;;;;;5104644;28;19951;-57
2022/11/15 02:05:20;;;;;;;;;;;;;;;;;;5106013;28;19973;-55
2022/11/15 02:07:45;;;;;;;;;;;;;;;;;;5104879;28;20656;-57
2022/11/15 02:10:16;;;;;;;;;;;;;;;;;;5101085;28;19919;-56
2022/11/15 02:12:42;;;;;;;;;;;;;;;;;;5100725;28;19924;-56
2022/11/15 02:15:08;;;;;;;;;;;;;;;;;;5110933;28;19919;-56
2022/11/15 02:17:48;;;;;;;;;;;;;;;;;;5107614;28;20282;-57
2022/11/15 02:20:25;;;;;;;;;;;;;;;;;;5104394;28;20014;-56
2022/11/15 02:23:09;;;;;;;;;;;;;;;;;;5105192;28;19911;-56
2022/11/15 02:25:40;;;;;;;;;;;;;;;;;;5100382;28;19922;-56
2022/11/15 02:28:37;;;;;;;;;;;;;;;;;;5104730;27;19923;-56
2022/11/15 02:31:05;;;;;;;;;;;;;;;;;;5074489;28;20019;-57
2022/11/15 02:33:34;;;;;;;;;;;;;;;;;;5104118;28;19920;-56
2022/11/15 02:36:02;;;;;;;;;;;;;;;;;;5103640;28;19951;-55
2022/11/15 02:38:27;;;;;;;;;;;;;;;;;;5105279;28;19919;-56
2022/11/15 02:40:57;;;;;;;;;;;;;;;;;;5107319;27;20002;-56
2022/11/15 02:46:13;;;;;;;;;;;;;;;;;;5109027;28;19926;-57
2022/11/15 02:48:39;;;;;;;;;;;;;;;;;;5111114;28;19922;-55
2022/11/15 02:51:04;;;;;;;;;;;;;;;;;;5108042;27;20293;-55
2022/11/15 02:53:29;;;;;;;;;;;;;;;;;;5102890;28;19927;-55
2022/11/15 02:55:56;;;;;;;;;;;;;;;;;;5111387;27;19919;-54
2022/11/15 02:58:39;;;;;;;;;;;;;;;;;;5114215;27;19916;-54
2022/11/15 03:01:05;;;;;;;;;;;;;;;;;;5107751;28;20033;-54
2022/11/15 03:03:38;;;;;;;;;;;;;;;;;;5109576;28;20010;-55
2022/11/15 03:06:22;;;;;;;;;;;;;;;;;;5106199;28;20388;-55
2022/11/15 03:08:56;;;;;;;;;;;;;;;;;;5103282;28;19922;-55
2022/11/15 03:11:22;;;;;;;;;;;;;;;;;;5105651;28;20355;-55
2022/11/15 03:13:57;;;;;;;;;;;;;;;;;;5109274;28;19920;-55
2022/11/15 03:16:31;;;;;;;;;;;;;;;;;;5109775;28;19959;-56
2022/11/15 03:18:59;;;;;;;;;;;;;;;;;;5110491;27;19919;-55
2022/11/15 03:21:27;;;;;;;;;;;;;;;;;;5108833;28;19916;-56
2022/11/15 03:23:54;;;;;;;;;;;;;;;;;;5109152;27;20334;-55
2022/11/15 03:26:21;;;;;;;;;;;;;;;;;;5113164;27;19915;-55
2022/11/15 03:28:46;;;;;;;;;;;;;;;;;;5107952;27;19969;-55
2022/11/15 03:33:57;;;;;;;;;;;;;;;;;;5108819;28;19972;-55
2022/11/15 03:36:24;;;;;;;;;;;;;;;;;;5108543;28;20304;-55
2022/11/15 03:38:51;;;;;;;;;;;;;;;;;;5107227;28;19915;-55
2022/11/15 03:41:23;;;;;;;;;;;;;;;;;;5109146;27;20001;-55
2022/11/15 03:43:54;;;;;;;;;;;;;;;;;;5109205;28;19985;-56
2022/11/15 03:46:23;;;;;;;;;;;;;;;;;;5106279;28;19922;-55
2022/11/15 03:48:54;;;;;;;;;;;;;;;;;;5104671;28;19922;-55
2022/11/15 03:51:19;;;;;;;;;;;;;;;;;;5105179;28;19916;-55
2022/11/15 03:53:45;;;;;;;;;;;;;;;;;;5106182;28;19931;-55
2022/11/15 03:56:10;;;;;;;;;;;;;;;;;;5104147;28;20003;-55
2022/11/15 03:58:35;;;;;;;;;;;;;;;;;;5106096;28;20397;-56
2022/11/15 04:01:01;;;;;;;;;;;;;;;;;;5100391;28;20348;-56
2022/11/15 04:03:26;;;;;;;;;;;;;;;;;;5105761;28;19958;-55
2022/11/15 04:05:51;;;;;;;;;;;;;;;;;;5108953;28;19920;-56
2022/11/15 04:08:16;;;;;;;;;;;;;;;;;;5111479;27;19951;-56
2022/11/15 04:10:42;;;;;;;;;;;;;;;;;;5109602;28;19972;-56
2022/11/15 04:13:07;;;;;;;;;;;;;;;;;;5110595;27;19919;-54
2022/11/15 04:15:32;;;;;;;;;;;;;;;;;;5109248;27;19924;-56
2022/11/15 04:17:58;;;;;;;;;;;;;;;;;;5109827;28;19919;-56
2022/11/15 04:26:10;;;;;;;;;;;;;;;;;;5107959;27;19961;-56
2022/11/15 04:29:33;;;;;;;;;;;;;;;;;;5107638;28;20381;-56
2022/11/15 04:31:21;;;;;;;;;;;;;;;;;;5105612;28;20007;-55
2022/11/15 04:33:46;;;;;;;;;;;;;;;;;;5106312;28;20010;-57
2022/11/15 04:38:55;;;;;;;;;;;;;;;;;;5105761;28;19927;-57
2022/11/15 04:41:20;;;;;;;;;;;;;;;;;;5105977;28;19915;-57
2022/11/15 04:43:46;;;;;;;;;;;;;;;;;;5131371;27;19912;-56
2022/11/15 04:46:11;;;;;;;;;;;;;;;;;;5107901;28;19926;-56
2022/11/15 04:48:36;;;;;;;;;;;;;;;;;;5108307;28;19916;-56
2022/11/15 04:51:01;;;;;;;;;;;;;;;;;;5107470;28;19968;-56
2022/11/15 04:53:27;;;;;;;;;;;;;;;;;;5104794;28;19927;-57
2022/11/15 04:55:52;;;;;;;;;;;;;;;;;;5103255;28;19923;-56
2022/11/15 04:58:17;;;;;;;;;;;;;;;;;;5103520;28;19956;-56
2022/11/15 05:00:42;;;;;;;;;;;;;;;;;;5103432;27;19912;-57
2022/11/15 05:06:03;;;;;;;;;;;;;;;;;;5070160;28;19916;-56
2022/11/15 05:08:29;;;;;;;;;;;;;;;;;;5106681;28;19922;-57
2022/11/15 05:10:54;;;;;;;;;;;;;;;;;;5106662;28;19923;-57
2022/11/15 05:13:19;;;;;;;;;;;;;;;;;;5106281;28;19920;-56
2022/11/15 05:15:44;;;;;;;;;;;;;;;;;;5107809;28;20014;-57
2022/11/15 05:18:10;;;;;;;;;;;;;;;;;;5107779;28;19916;-56
2022/11/15 05:20:35;;;;;;;;;;;;;;;;;;5111270;28;19915;-56
2022/11/15 05:23:00;;;;;;;;;;;;;;;;;;5107721;28;19997;-56
2022/11/15 05:25:25;;;;;;;;;;;;;;;;;;5106419;28;20273;-56
2022/11/15 05:27:51;;;;;;;;;;;;;;;;;;5108004;28;19965;-56
2022/11/15 05:30:16;;;;;;;;;;;;;;;;;;5105895;28;19924;-56
2022/11/15 05:32:42;;;;;;;;;;;;;;;;;;5102192;28;19986;-57
2022/11/15 05:35:09;;;;;;;;;;;;;;;;;;5106154;28;20460;-56
2022/11/15 05:37:34;;;;;;;;;;;;;;;;;;5107245;28;19924;-56
2022/11/15 05:40:00;;;;;;;;;;;;;;;;;;5108464;28;19938;-56
2022/11/15 05:42:26;;;;;;;;;;;;;;;;;;5104499;28;19922;-56
2022/11/15 05:44:51;;;;;;;;;;;;;;;;;;5102920;28;19945;-56
2022/11/15 05:47:19;;;;;;;;;;;;;;;;;;5103145;28;19916;-57
2022/11/15 05:49:44;;;;;;;;;;;;;;;;;;5102249;28;19962;-56
2022/11/15 05:52:11;;;;;;;;;;;;;;;;;;5101486;27;19944;-56
2022/11/15 05:54:37;;;;;;;;;;;;;;;;;;5101430;28;20002;-56
2022/11/15 05:57:03;;;;;;;;;;;;;;;;;;5108123;28;19963;-56
2022/11/15 05:59:30;;;;;;;;;;;;;;;;;;5105272;28;19919;-56
2022/11/15 06:01:55;;;;;;;;;;;;;;;;;;5106998;28;19941;-55
2022/11/15 06:04:20;;;;;;;;;;;;;;;;;;5105471;28;19916;-56
2022/11/15 06:06:46;;;;;;;;;;;;;;;;;;5104040;28;20057;-58
2022/11/15 06:09:11;;;;;;;;;;;;;;;;;;5099444;28;19919;-58
2022/11/15 06:11:36;;;;;;;;;;;;;;;;;;5103842;28;19941;-58
2022/11/15 06:14:01;;;;;;;;;;;;;;;;;;5108752;28;19954;-58
2022/11/15 06:16:27;;;;;;;;;;;;;;;;;;5110886;28;19912;-59
2022/11/15 06:18:52;;;;;;;;;;;;;;;;;;5111476;28;19923;-57
2022/11/15 06:21:17;;;;;;;;;;;;;;;;;;5111120;28;20352;-57
2022/11/15 06:23:43;;;;;;;;;;;;;;;;;;5109993;28;19924;-57
2022/11/15 06:26:08;;;;;;;;;;;;;;;;;;5110595;27;19919;-57
2022/11/15 06:28:33;;;;;;;;;;;;;;;;;;5110462;28;19923;-57
2022/11/15 06:31:06;;;;;;;;;;;;;;;;;;5108014;28;19947;-58
2022/11/15 06:33:31;;;;;;;;;;;;;;;;;;5105171;28;19973;-57
2022/11/15 06:35:59;;;;;;;;;;;;;;;;;;5108308;28;19916;-57
2022/11/15 06:38:26;;;;;;;;;;;;;;;;;;5108718;28;19916;-58
2022/11/15 06:40:51;;;;;;;;;;;;;;;;;;5108822;28;19918;-58
2022/11/15 06:43:16;;;;;;;;;;;;;;;;;;5133504;27;20022;-57
2022/11/15 06:45:41;;;;;;;;;;;;;;;;;;5108574;28;19923;-58
2022/11/15 06:48:07;;;;;;;;;;;;;;;;;;5110770;28;19953;-58
2022/11/15 06:50:32;;;;;;;;;;;;;;;;;;5107926;28;19919;-59
2022/11/15 06:53:00;;;;;;;;;;;;;;;;;;5109286;28;20270;-58
2022/11/15 06:55:26;;;;;;;;;;;;;;;;;;5106896;27;19935;-60
2022/11/15 06:57:52;;;;;;;;;;;;;;;;;;5110254;28;19920;-60
2022/11/15 07:00:18;;;;;;;;;;;;;;;;;;5107019;28;19912;-57
2022/11/15 07:02:43;;;;;;;;;;;;;;;;;;5105030;27;19958;-58
2022/11/15 07:05:08;;;;;;;;;;;;;;;;;;5105191;28;20423;-58
2022/11/15 07:07:34;;;;;;;;;;;;;;;;;;5107608;28;20367;-57
2022/11/15 07:09:59;;;;;;;;;;;;;;;;;;5110511;27;19916;-59
2022/11/15 07:12:24;;;;;;;;;;;;;;;;;;5105947;28;20404;-58
2022/11/15 07:14:49;;;;;;;;;;;;;;;;;;5111187;28;19951;-59
2022/11/15 07:17:15;;;;;;;;;;;;;;;;;;5110436;28;19961;-58
2022/11/15 07:19:40;;;;;;;;;;;;;;;;;;5110431;28;19939;-57
2022/11/15 07:22:05;;;;;;;;;;;;;;;;;;5107813;28;20381;-58
2022/11/15 07:24:30;;;;;;;;;;;;;;;;;;5108204;28;19915;-58
2022/11/15 07:26:56;;;;;;;;;;;;;;;;;;5107880;28;19916;-58
2022/11/15 07:29:21;;;;;;;;;;;;;;;;;;5108486;28;20239;-58
2022/11/15 07:31:46;;;;;;;;;;;;;;;;;;5109207;28;19924;-58
2022/11/15 07:34:12;;;;;;;;;;;;;;;;;;5108025;28;19924;-58
2022/11/15 07:36:37;;;;;;;;;;;;;;;;;;5107420;28;20422;-57
2022/11/15 07:39:02;;;;;;;;;;;;;;;;;;5106658;28;20014;-56
2022/11/15 07:41:29;;;;;;;;;;;;;;;;;;5108758;28;19999;-56
2022/11/15 07:43:54;;;;;;;;;;;;;;;;;;5112005;27;19946;-58
2022/11/15 07:46:19;;;;;;;;;;;;;;;;;;5104533;28;20378;-57
2022/11/15 07:48:44;;;;;;;;;;;;;;;;;;5098696;28;19997;-58
2022/11/15 07:51:14;;;;;;;;;;;;;;;;;;5105395;28;19915;-58
2022/11/15 07:53:39;;;;;;;;;;;;;;;;;;5103542;27;19920;-57
2022/11/15 07:56:07;;;;;;;;;;;;;;;;;;5107279;28;20334;-58
2022/11/15 07:58:33;;;;;;;;;;;;;;;;;;5108246;27;19941;-57
2022/11/15 08:01:01;;;;;;;;;;;;;;;;;;5106152;28;19923;-56
2022/11/15 08:03:27;;;;;;;;;;;;;;;;;;5105017;27;19968;-56
2022/11/15 08:05:52;;;;;;;;;;;;;;;;;;5103393;28;19916;-57
2022/11/15 08:08:18;;;;;;;;;;;;;;;;;;5104262;28;19922;-58
2022/11/15 08:10:43;;;;;;;;;;;;;;;;;;5110508;28;19958;-57
2022/11/15 08:13:11;;;;;;;;;;;;;;;;;;5109239;28;19951;-58
2022/11/15 08:15:37;;;;;;;;;;;;;;;;;;5108334;28;19916;-58
2022/11/15 08:18:03;;;;;;;;;;;;;;;;;;5109391;28;20305;-58
2022/11/15 08:20:29;;;;;;;;;;;;;;;;;;5108132;28;19920;-58
2022/11/15 08:22:55;;;;;;;;;;;;;;;;;;5106758;28;19915;-58
2022/11/15 08:25:20;;;;;;;;;;;;;;;;;;5108137;28;19923;-58
2022/11/15 08:27:46;;;;;;;;;;;;;;;;;;5106785;28;19951;-58
2022/11/15 08:30:11;;;;;;;;;;;;;;;;;;5099253;28;19963;-57
2022/11/15 08:32:37;;;;;;;;;;;;;;;;;;5107083;27;19927;-57
2022/11/15 08:35:02;;;;;;;;;;;;;;;;;;5108166;27;19920;-58
2022/11/15 08:37:28;;;;;;;;;;;;;;;;;;5099614;28;19916;-59
2022/11/15 08:39:53;;;;;;;;;;;;;;;;;;5104921;28;20404;-58
2022/11/15 08:42:18;;;;;;;;;;;;;;;;;;5105854;28;20371;-57
2022/11/15 08:44:43;;;;;;;;;;;;;;;;;;5105696;28;19912;-58
2022/11/15 08:47:11;;;;;;;;;;;;;;;;;;5136022;27;19912;-58
2022/11/15 08:49:36;;;;;;;;;;;;;;;;;;5102855;28;19912;-58
2022/11/15 08:52:01;;;;;;;;;;;;;;;;;;5105211;28;19938;-58
2022/11/15 08:54:26;;;;;;;;;;;;;;;;;;5105537;28;19951;-58
2022/11/15 08:56:52;;;;;;;;;;;;;;;;;;5104430;28;19915;-58
2022/11/15 08:59:17;;;;;;;;;;;;;;;;;;5102060;28;19919;-57
2022/11/15 09:01:42;;;;;;;;;;;;;;;;;;5104265;28;20335;-58
2022/11/15 09:04:07;;;;;;;;;;;;;;;;;;5105716;28;19923;-58
2022/11/15 09:06:33;;;;;;;;;;;;;;;;;;5105077;28;19923;-58
2022/11/15 09:08:59;;;;;;;;;;;;;;;;;;5110179;28;19919;-58
2022/11/15 09:11:26;;;;;;;;;;;;;;;;;;5109907;28;19973;-58
2022/11/15 09:13:51;;;;;;;;;;;;;;;;;;5108890;28;20438;-58
2022/11/15 09:16:17;;;;;;;;;;;;;;;;;;5109109;28;19923;-58
2022/11/15 09:18:42;;;;;;;;;;;;;;;;;;5106942;28;19927;-58
2022/11/15 09:21:07;;;;;;;;;;;;;;;;;;5109191;28;19961;-58
2022/11/15 09:23:33;;;;;;;;;;;;;;;;;;5106228;28;20381;-58
2022/11/15 09:26:00;;;;;;;;;;;;;;;;;;5107038;28;19955;-58
2022/11/15 09:28:25;;;;;;;;;;;;;;;;;;5105967;28;19969;-58
2022/11/15 09:30:51;;;;;;;;;;;;;;;;;;5104955;28;19916;-59
2022/11/15 09:33:17;;;;;;;;;;;;;;;;;;5106517;28;20429;-58
2022/11/15 09:35:42;;;;;;;;;;;;;;;;;;5107285;28;19919;-58
2022/11/15 09:38:07;;;;;;;;;;;;;;;;;;5103219;28;19916;-58
2022/11/15 09:40:35;;;;;;;;;;;;;;;;;;5108682;28;19976;-58
2022/11/15 09:43:02;;;;;;;;;;;;;;;;;;5108268;28;19915;-59
2022/11/15 09:45:34;;;;;;;;;;;;;;;;;;5109088;28;20369;-59
2022/11/15 09:47:59;;;;;;;;;;;;;;;;;;5108049;28;20293;-61
2022/11/15 09:50:33;;;;;;;;;;;;;;;;;;5109152;27;19916;-59
2022/11/15 09:52:58;;;;;;;;;;;;;;;;;;5104797;28;19923;-59
2022/11/15 09:55:31;;;;;;;;;;;;;;;;;;5109422;27;19915;-58
2022/11/15 09:58:03;;;;;;;;;;;;;;;;;;5107352;27;20274;-59
2022/11/15 10:00:29;;;;;;;;;;;;;;;;;;5110089;27;20508;-59
2022/11/15 10:02:54;;;;;;;;;;;;;;;;;;5108625;28;19911;-58
2022/11/15 10:05:20;;;;;;;;;;;;;;;;;;5109063;28;20337;-58
2022/11/15 10:07:46;;;;;;;;;;;;;;;;;;5107866;27;19972;-58
2022/11/15 10:10:11;;;;;;;;;;;;;;;;;;5110009;27;19915;-59
2022/11/15 10:12:37;;;;;;;;;;;;;;;;;;5121009;27;19915;-58
2022/11/15 10:15:06;;;;;;;;;;;;;;;;;;5113194;27;19926;-59
2022/11/15 10:17:34;;;;;;;;;;;;;;;;;;5111839;27;20422;-59
2022/11/15 10:20:03;;;;;;;;;;;;;;;;;;5108617;28;19915;-60
2022/11/15 10:22:30;;;;;;;;;;;;;;;;;;5110245;27;19923;-58
2022/11/15 10:25:01;;;;;;;;;;;;;;;;;;5111020;27;19923;-58
2022/11/15 10:27:26;;;;;;;;;;;;;;;;;;5111082;28;19916;-58
2022/11/15 10:29:51;;;;;;;;;;;;;;;;;;5108986;27;19927;-58
2022/11/15 10:32:18;;;;;;;;;;;;;;;;;;5110555;27;20292;-59
2022/11/15 10:34:44;;;;;;;;;;;;;;;;;;5109349;28;19965;-59
2022/11/15 10:37:09;;;;;;;;;;;;;;;;;;5111802;28;19954;-59
2022/11/15 10:39:34;;;;;;;;;;;;;;;;;;5116123;27;20345;-58
2022/11/15 10:42:22;;;;;;;;;;;;;;;;;;5108003;28;19911;-58
2022/11/15 10:44:48;;;;;;;;;;;;;;;;;;5109595;27;19916;-58
2022/11/15 10:47:19;;;;;;;;;;;;;;;;;;5107814;28;19969;-59
2022/11/15 10:49:53;;;;;;;;;;;;;;;;;;5113184;27;19916;-59
2022/11/15 10:52:19;;;;;;;;;;;;;;;;;;5107313;28;19916;-59
2022/11/15 10:54:47;;;;;;;;;;;;;;;;;;5107587;27;19920;-59
2022/11/15 10:57:16;;;;;;;;;;;;;;;;;;5106484;27;19920;-59
2022/11/15 11:00:07;;;;;;;;;;;;;;;;;;5108924;27;19963;-59
2022/11/15 11:02:37;;;;;;;;;;;;;;;;;;5099957;28;19965;-59
2022/11/15 11:05:04;;;;;;;;;;;;;;;;;;5110517;27;20452;-60
2022/11/15 11:07:31;;;;;;;;;;;;;;;;;;5114136;27;20050;-59
2022/11/15 11:10:26;;;;;;;;;;;;;;;;;;5112488;28;19923;-58
2022/11/15 11:12:51;;;;;;;;;;;;;;;;;;5099488;28;19920;-58
2022/11/15 11:15:16;;;;;;;;;;;;;;;;;;5109376;27;19923;-59
2022/11/15 11:17:45;;;;;;;;;;;;;;;;;;5111389;27;20320;-59
2022/11/15 11:20:29;;;;;;;;;;;;;;;;;;5111211;28;19922;-59
2022/11/15 11:23:03;;;;;;;;;;;;;;;;;;5108783;27;19983;-59
2022/11/15 11:25:43;;;;;;;;;;;;;;;;;;5108832;27;20468;-59
2022/11/15 11:28:41;;;;;;;;;;;;;;;;;;5109468;27;19926;-59
2022/11/15 11:31:12;;;;;;;;;;;;;;;;;;5076937;27;19954;-58
2022/11/15 11:33:37;;;;;;;;;;;;;;;;;;5106874;28;20006;-58
2022/11/15 11:36:32;;;;;;;;;;;;;;;;;;5108832;27;20010;-58
2022/11/15 11:39:14;;;;;;;;;;;;;;;;;;5097020;27;19983;-58
2022/11/15 11:41:43;;;;;;;;;;;;;;;;;;5106148;27;19926;-59
2022/11/15 11:44:24;;;;;;;;;;;;;;;;;;5104645;27;20362;-59
2022/11/15 11:47:08;;;;;;;;;;;;;;;;;;5105442;28;19924;-59
2022/11/15 11:49:38;;;;;;;;;;;;;;;;;;5111026;28;20006;-58
2022/11/15 11:52:36;;;;;;;;;;;;;;;;;;5104688;28;19915;-57
2022/11/15 11:55:05;;;;;;;;;;;;;;;;;;5089187;27;19920;-58
2022/11/15 11:57:49;;;;;;;;;;;;;;;;;;5106601;28;19916;-58
2022/11/15 12:00:22;;;;;;;;;;;;;;;;;;5102864;28;19939;-58
2022/11/15 12:03:00;;;;;;;;;;;;;;;;;;5106074;28;20514;-58
2022/11/15 12:05:28;;;;;;;;;;;;;;;;;;5107134;28;19922;-58
2022/11/15 12:07:58;;;;;;;;;;;;;;;;;;5115748;27;19923;-58
2022/11/15 12:10:25;;;;;;;;;;;;;;;;;;5109231;28;19980;-58
2022/11/15 12:12:54;;;;;;;;;;;;;;;;;;5109252;27;20408;-59
2022/11/15 12:15:24;;;;;;;;;;;;;;;;;;5109448;27;19915;-59
2022/11/15 12:17:52;;;;;;;;;;;;;;;;;;5110259;27;20116;-58
2022/11/15 12:20:19;;;;;;;;;;;;;;;;;;5108860;27;19923;-58
2022/11/15 12:22:47;;;;;;;;;;;;;;;;;;5109132;27;19915;-58
2022/11/15 12:25:13;;;;;;;;;;;;;;;;;;5108563;27;19926;-59
2022/11/15 12:27:40;;;;;;;;;;;;;;;;;;5103817;28;19916;-57
2022/11/15 12:30:19;;;;;;;;;;;;;;;;;;5107803;27;20385;-58
2022/11/15 12:32:54;;;;;;;;;;;;;;;;;;5105673;27;20361;-58
2022/11/15 12:35:39;;;;;;;;;;;;;;;;;;5105944;27;19958;-58
2022/11/15 12:38:08;;;;;;;;;;;;;;;;;;5107889;27;20002;-58
2022/11/15 12:40:35;;;;;;;;;;;;;;;;;;5102446;28;20007;-58
2022/11/15 12:43:06;;;;;;;;;;;;;;;;;;5110956;27;20355;-59
2022/11/15 12:45:32;;;;;;;;;;;;;;;;;;5111548;27;19920;-57
2022/11/15 12:48:15;;;;;;;;;;;;;;;;;;5107778;28;19961;-57
2022/11/15 12:50:56;;;;;;;;;;;;;;;;;;5107262;28;19961;-60
2022/11/15 12:53:24;;;;;;;;;;;;;;;;;;5102742;27;19942;-60
2022/11/15 12:56:08;;;;;;;;;;;;;;;;;;5107794;27;19916;-58
2022/11/15 12:58:39;;;;;;;;;;;;;;;;;;5107756;28;19920;-58
2022/11/15 13:01:06;;;;;;;;;;;;;;;;;;5101648;28;19916;-58
2022/11/15 13:03:31;;;;;;;;;;;;;;;;;;5107500;27;19920;-59
2022/11/15 13:05:58;;;;;;;;;;;;;;;;;;5103149;28;19968;-58
2022/11/15 13:08:43;;;;;;;;;;;;;;;;;;5105368;28;20010;-60
2022/11/15 13:11:27;;;;;;;;;;;;;;;;;;5108183;28;19920;-60
2022/11/15 13:13:53;;;;;;;;;;;;;;;;;;5108630;28;19927;-60
2022/11/15 13:16:20;;;;;;;;;;;;;;;;;;5113049;27;20381;-58
2022/11/15 13:18:53;;;;;;;;;;;;;;;;;;5104855;28;19968;-59
2022/11/15 13:24:12;;;;;;;;;;;;;;;;;;5103872;28;19922;-59
2022/11/15 13:26:38;;;;;;;;;;;;;;;;;;5107571;28;19916;-59
2022/11/15 13:29:04;;;;;;;;;;;;;;;;;;5105681;28;19923;-59
2022/11/15 13:31:37;;;;;;;;;;;;;;;;;;5108731;28;20003;-59
2022/11/15 13:34:21;;;;;;;;;;;;;;;;;;5108656;28;19939;-60
2022/11/15 13:36:46;;;;;;;;;;;;;;;;;;5103955;28;19931;-60
2022/11/15 13:39:14;;;;;;;;;;;;;;;;;;5101440;28;19920;-59
2022/11/15 13:41:49;;;;;;;;;;;;;;;;;;5108498;28;20351;-59
2022/11/15 13:44:19;;;;;;;;;;;;;;;;;;5104650;28;19916;-59
2022/11/15 13:46:44;;;;;;;;;;;;;;;;;;5104076;28;19995;-58
2022/11/15 13:49:12;;;;;;;;;;;;;;;;;;5104614;28;19990;-60
2022/11/15 13:51:44;;;;;;;;;;;;;;;;;;5104056;28;19915;-60
2022/11/15 13:54:09;;;;;;;;;;;;;;;;;;5109476;28;20522;-59
2022/11/15 13:56:35;;;;;;;;;;;;;;;;;;5103972;28;19913;-58
2022/11/15 13:59:07;;;;;;;;;;;;;;;;;;5105408;28;19922;-58
2022/11/15 14:01:33;;;;;;;;;;;;;;;;;;5104869;28;20304;-58
2022/11/15 14:03:59;;;;;;;;;;;;;;;;;;5104137;28;19999;-58
2022/11/15 14:06:27;;;;;;;;;;;;;;;;;;5109145;28;20001;-58
2022/11/15 14:09:10;;;;;;;;;;;;;;;;;;5109536;28;19916;-59
2022/11/15 14:11:35;;;;;;;;;;;;;;;;;;5109169;28;19915;-58
2022/11/15 14:14:07;;;;;;;;;;;;;;;;;;5108343;28;20389;-58
2022/11/15 14:16:35;;;;;;;;;;;;;;;;;;5107708;28;20400;-58
2022/11/15 14:19:01;;;;;;;;;;;;;;;;;;5107531;28;19916;-59
2022/11/15 14:21:26;;;;;;;;;;;;;;;;;;5106035;28;19916;-58
2022/11/15 14:23:51;;;;;;;;;;;;;;;;;;5106489;28;20438;-57
2022/11/15 14:26:26;;;;;;;;;;;;;;;;;;5106179;28;19969;-58
2022/11/15 14:28:51;;;;;;;;;;;;;;;;;;5109031;28;20010;-58
2022/11/15 14:31:20;;;;;;;;;;;;;;;;;;5104031;28;20018;-58
2022/11/15 14:33:46;;;;;;;;;;;;;;;;;;5105093;28;19964;-58
2022/11/15 14:36:12;;;;;;;;;;;;;;;;;;5107861;27;19920;-59
2022/11/15 14:38:38;;;;;;;;;;;;;;;;;;5107670;28;19927;-58
2022/11/15 14:41:03;;;;;;;;;;;;;;;;;;5108415;27;19924;-59
2022/11/15 14:43:28;;;;;;;;;;;;;;;;;;5107240;27;19987;-58
2022/11/15 14:45:54;;;;;;;;;;;;;;;;;;5111196;28;19923;-59
2022/11/15 14:48:19;;;;;;;;;;;;;;;;;;5112525;27;19923;-58
2022/11/15 14:50:44;;;;;;;;;;;;;;;;;;5112223;27;19924;-58
2022/11/15 14:53:12;;;;;;;;;;;;;;;;;;5102885;28;20026;-58
2022/11/15 14:55:37;;;;;;;;;;;;;;;;;;5110260;27;19922;-58
2022/11/15 14:58:03;;;;;;;;;;;;;;;;;;5107752;27;19920;-58
2022/11/15 15:00:32;;;;;;;;;;;;;;;;;;5107665;28;20346;-59
2022/11/15 15:02:57;;;;;;;;;;;;;;;;;;5107238;27;19922;-57
2022/11/15 15:05:24;;;;;;;;;;;;;;;;;;5109355;28;19919;-58
2022/11/15 15:07:50;;;;;;;;;;;;;;;;;;5110325;28;20304;-58
2022/11/15 15:10:16;;;;;;;;;;;;;;;;;;5111578;27;19912;-58
2022/11/15 15:12:41;;;;;;;;;;;;;;;;;;5112088;27;20282;-59
2022/11/15 15:15:12;;;;;;;;;;;;;;;;;;5110652;27;19916;-59
2022/11/15 15:17:37;;;;;;;;;;;;;;;;;;5111415;27;19947;-58
2022/11/15 15:20:02;;;;;;;;;;;;;;;;;;5111726;28;19966;-58
2022/11/15 15:22:29;;;;;;;;;;;;;;;;;;5107002;28;19916;-58
2022/11/15 15:24:54;;;;;;;;;;;;;;;;;;5108137;27;19976;-57
2022/11/15 15:27:19;;;;;;;;;;;;;;;;;;5111517;27;19919;-58
2022/11/15 15:29:44;;;;;;;;;;;;;;;;;;5109047;28;19922;-57
2022/11/15 15:32:10;;;;;;;;;;;;;;;;;;5109872;27;19915;-58
2022/11/15 15:34:36;;;;;;;;;;;;;;;;;;5104372;28;19920;-57
2022/11/15 15:37:20;;;;;;;;;;;;;;;;;;5106415;27;19912;-57
2022/11/15 15:39:45;;;;;;;;;;;;;;;;;;5110966;27;19915;-59
2022/11/15 15:42:10;;;;;;;;;;;;;;;;;;5107681;27;20424;-58
2022/11/15 15:44:35;;;;;;;;;;;;;;;;;;5109770;27;19920;-55
2022/11/15 15:47:01;;;;;;;;;;;;;;;;;;5110155;28;19923;-55
2022/11/15 15:49:26;;;;;;;;;;;;;;;;;;5107527;28;20012;-56
2022/11/15 15:51:51;;;;;;;;;;;;;;;;;;5106486;28;20384;-56
2022/11/15 15:54:16;;;;;;;;;;;;;;;;;;5106357;28;19916;-56
2022/11/15 15:56:42;;;;;;;;;;;;;;;;;;5105624;28;20417;-56
2022/11/15 15:59:07;;;;;;;;;;;;;;;;;;5105859;28;19916;-56
2022/11/15 16:01:32;;;;;;;;;;;;;;;;;;5109272;28;20626;-55
2022/11/15 16:03:57;;;;;;;;;;;;;;;;;;5109352;28;19927;-56
2022/11/15 16:06:32;;;;;;;;;;;;;;;;;;5108913;28;19963;-56
2022/11/15 16:08:57;;;;;;;;;;;;;;;;;;5107209;28;20354;-57
2022/11/15 16:11:22;;;;;;;;;;;;;;;;;;5112782;27;19923;-58
2022/11/15 16:13:48;;;;;;;;;;;;;;;;;;5107830;27;20293;-58
2022/11/15 16:16:13;;;;;;;;;;;;;;;;;;5108006;28;19938;-58
2022/11/15 16:18:39;;;;;;;;;;;;;;;;;;5111037;27;19992;-58
2022/11/15 16:21:04;;;;;;;;;;;;;;;;;;5108263;27;19961;-58
2022/11/15 16:23:29;;;;;;;;;;;;;;;;;;5108082;28;20393;-57
2022/11/15 16:25:55;;;;;;;;;;;;;;;;;;5112300;27;19924;-56
2022/11/15 16:28:20;;;;;;;;;;;;;;;;;;5113351;27;20558;-57
2022/11/15 16:30:46;;;;;;;;;;;;;;;;;;5108392;28;20362;-57
2022/11/15 16:33:11;;;;;;;;;;;;;;;;;;5105782;28;20350;-58
2022/11/15 16:35:36;;;;;;;;;;;;;;;;;;5102393;28;20450;-58
2022/11/15 16:38:01;;;;;;;;;;;;;;;;;;5110574;27;19946;-56
2022/11/15 16:40:29;;;;;;;;;;;;;;;;;;5108183;27;19915;-58
2022/11/15 16:42:55;;;;;;;;;;;;;;;;;;5106782;27;20012;-60
2022/11/15 16:45:21;;;;;;;;;;;;;;;;;;5105728;27;19916;-60
2022/11/15 16:47:46;;;;;;;;;;;;;;;;;;5105683;28;19916;-60
2022/11/15 16:50:18;;;;;;;;;;;;;;;;;;5105437;27;19923;-60
2022/11/15 16:52:44;;;;;;;;;;;;;;;;;;5104562;27;19930;-61
2022/11/15 16:55:09;;;;;;;;;;;;;;;;;;5103525;28;20305;-58
2022/11/15 16:57:34;;;;;;;;;;;;;;;;;;5107794;28;19916;-58
2022/11/15 16:59:59;;;;;;;;;;;;;;;;;;5108552;27;19919;-57
2022/11/15 17:02:25;;;;;;;;;;;;;;;;;;5105750;27;19950;-58
2022/11/15 17:04:50;;;;;;;;;;;;;;;;;;5108318;28;19916;-58
2022/11/15 17:07:15;;;;;;;;;;;;;;;;;;5109049;27;20334;-56
2022/11/15 17:09:40;;;;;;;;;;;;;;;;;;5108999;28;19985;-58